sensor_id;sensor_type;location;lat;lon;timestamp;P1;durP1;ratioP1;P2;durP2;ratioP2
51238;SDS011;38154;47.548;18.828;2022-10-16T00:01:59;6.33;;;3.53;;
51238;SDS011;38154;47.548;18.828;2022-10-16T00:04:25;7.80;;;3.70;;
51238;SDS011;38154;47.548;18.828;2022-10-16T00:06:51;3.87;;;2.63;;
51238;SDS011;38154;47.548;18.828;2022-10-16T00:09:17;6.53;;;3.43;;
51238;SDS011;38154;47.548;18.828;2022-10-16T00:11:43;5.97;;;3.10;;
51238;SDS011;38154;47.548;18.828;2022-10-16T00:14:10;9.27;;;3.83;;
51238;SDS011;38154;47.548;18.828;2022-10-16T00:16:38;5.05;;;2.80;;
51238;SDS011;38154;47.548;18.828;2022-10-16T00:19:04;7.30;;;3.55;;
51238;SDS011;38154;47.548;18.828;2022-10-16T00:21:30;3.50;;;2.77;;
51238;SDS011;38154;47.548;18.828;2022-10-16T00:24:01;6.70;;;4.05;;
51238;SDS011;38154;47.548;18.828;2022-10-16T00:26:33;5.85;;;3.50;;
51238;SDS011;38154;47.548;18.828;2022-10-16T00:29:00;7.53;;;3.80;;
51238;SDS011;38154;47.548;18.828;2022-10-16T00:31:26;7.23;;;3.87;;
51238;SDS011;38154;47.548;18.828;2022-10-16T00:33:52;7.25;;;3.78;;
51238;SDS011;38154;47.548;18.828;2022-10-16T00:36:19;11.93;;;4.15;;
51238;SDS011;38154;47.548;18.828;2022-10-16T00:38:50;5.93;;;4.35;;
51238;SDS011;38154;47.548;18.828;2022-10-16T00:41:21;5.57;;;3.85;;
51238;SDS011;38154;47.548;18.828;2022-10-16T00:43:49;6.45;;;3.12;;
51238;SDS011;38154;47.548;18.828;2022-10-16T00:46:25;4.82;;;3.47;;
51238;SDS011;38154;47.548;18.828;2022-10-16T00:49:12;6.12;;;3.45;;
51238;SDS011;38154;47.548;18.828;2022-10-16T00:51:47;6.12;;;3.75;;
51238;SDS011;38154;47.548;18.828;2022-10-16T00:54:28;7.12;;;4.25;;
51238;SDS011;38154;47.548;18.828;2022-10-16T00:56:57;4.15;;;3.03;;
51238;SDS011;38154;47.548;18.828;2022-10-16T00:59:30;8.98;;;4.80;;
51238;SDS011;38154;47.548;18.828;2022-10-16T01:01:59;7.30;;;3.58;;
51238;SDS011;38154;47.548;18.828;2022-10-16T01:04:25;5.57;;;3.73;;
51238;SDS011;38154;47.548;18.828;2022-10-16T01:06:56;5.07;;;3.35;;
51238;SDS011;38154;47.548;18.828;2022-10-16T01:09:42;7.35;;;3.15;;
51238;SDS011;38154;47.548;18.828;2022-10-16T01:14:57;5.55;;;3.20;;
51238;SDS011;38154;47.548;18.828;2022-10-16T01:17:46;6.32;;;4.07;;
51238;SDS011;38154;47.548;18.828;2022-10-16T01:20:29;6.12;;;3.42;;
51238;SDS011;38154;47.548;18.828;2022-10-16T01:28:51;4.93;;;3.12;;
51238;SDS011;38154;47.548;18.828;2022-10-16T01:31:23;4.93;;;3.47;;
51238;SDS011;38154;47.548;18.828;2022-10-16T01:34:00;8.32;;;3.53;;
51238;SDS011;38154;47.548;18.828;2022-10-16T01:36:35;6.07;;;3.20;;
51238;SDS011;38154;47.548;18.828;2022-10-16T01:39:04;4.50;;;3.22;;
51238;SDS011;38154;47.548;18.828;2022-10-16T01:41:36;7.45;;;3.35;;
51238;SDS011;38154;47.548;18.828;2022-10-16T01:44:14;7.28;;;3.80;;
51238;SDS011;38154;47.548;18.828;2022-10-16T01:46:45;8.23;;;3.12;;
51238;SDS011;38154;47.548;18.828;2022-10-16T01:49:13;5.60;;;3.37;;
51238;SDS011;38154;47.548;18.828;2022-10-16T01:51:39;7.68;;;3.37;;
51238;SDS011;38154;47.548;18.828;2022-10-16T01:54:10;5.68;;;2.60;;
51238;SDS011;38154;47.548;18.828;2022-10-16T01:56:39;6.18;;;3.40;;
51238;SDS011;38154;47.548;18.828;2022-10-16T01:59:06;13.85;;;3.72;;
51238;SDS011;38154;47.548;18.828;2022-10-16T02:01:37;7.80;;;3.55;;
51238;SDS011;38154;47.548;18.828;2022-10-16T02:04:10;7.93;;;4.03;;
51238;SDS011;38154;47.548;18.828;2022-10-16T02:06:42;4.90;;;3.20;;
51238;SDS011;38154;47.548;18.828;2022-10-16T02:09:08;5.03;;;3.60;;
51238;SDS011;38154;47.548;18.828;2022-10-16T02:11:34;3.30;;;2.75;;
51238;SDS011;38154;47.548;18.828;2022-10-16T02:14:01;5.78;;;3.83;;
51238;SDS011;38154;47.548;18.828;2022-10-16T02:16:38;6.30;;;3.55;;
51238;SDS011;38154;47.548;18.828;2022-10-16T02:19:08;4.28;;;2.87;;
51238;SDS011;38154;47.548;18.828;2022-10-16T02:21:45;4.65;;;2.90;;
51238;SDS011;38154;47.548;18.828;2022-10-16T02:29:30;6.37;;;3.05;;
51238;SDS011;38154;47.548;18.828;2022-10-16T02:32:00;4.78;;;2.78;;
51238;SDS011;38154;47.548;18.828;2022-10-16T02:34:30;9.95;;;3.28;;
51238;SDS011;38154;47.548;18.828;2022-10-16T02:36:58;4.70;;;3.03;;
51238;SDS011;38154;47.548;18.828;2022-10-16T02:39:27;8.40;;;3.28;;
51238;SDS011;38154;47.548;18.828;2022-10-16T02:41:54;6.20;;;3.15;;
51238;SDS011;38154;47.548;18.828;2022-10-16T02:44:20;4.60;;;3.40;;
51238;SDS011;38154;47.548;18.828;2022-10-16T02:46:46;5.40;;;3.17;;
51238;SDS011;38154;47.548;18.828;2022-10-16T02:49:11;6.60;;;4.17;;
51238;SDS011;38154;47.548;18.828;2022-10-16T02:51:37;7.80;;;3.43;;
51238;SDS011;38154;47.548;18.828;2022-10-16T02:54:03;9.07;;;3.27;;
51238;SDS011;38154;47.548;18.828;2022-10-16T02:56:29;5.82;;;3.35;;
51238;SDS011;38154;47.548;18.828;2022-10-16T02:58:56;5.80;;;3.62;;
51238;SDS011;38154;47.548;18.828;2022-10-16T03:01:22;5.45;;;2.95;;
51238;SDS011;38154;47.548;18.828;2022-10-16T03:03:49;10.77;;;3.12;;
51238;SDS011;38154;47.548;18.828;2022-10-16T03:06:15;5.03;;;3.13;;
51238;SDS011;38154;47.548;18.828;2022-10-16T03:08:41;5.77;;;2.77;;
51238;SDS011;38154;47.548;18.828;2022-10-16T03:11:07;15.17;;;3.43;;
51238;SDS011;38154;47.548;18.828;2022-10-16T03:13:33;5.50;;;3.27;;
51238;SDS011;38154;47.548;18.828;2022-10-16T03:15:58;5.97;;;3.53;;
51238;SDS011;38154;47.548;18.828;2022-10-16T03:18:24;2.73;;;2.13;;
51238;SDS011;38154;47.548;18.828;2022-10-16T03:20:50;5.20;;;2.97;;
51238;SDS011;38154;47.548;18.828;2022-10-16T03:23:16;7.30;;;3.50;;
51238;SDS011;38154;47.548;18.828;2022-10-16T03:25:42;10.03;;;3.33;;
51238;SDS011;38154;47.548;18.828;2022-10-16T03:28:08;5.93;;;3.00;;
51238;SDS011;38154;47.548;18.828;2022-10-16T03:30:33;6.87;;;3.50;;
51238;SDS011;38154;47.548;18.828;2022-10-16T03:32:59;3.87;;;2.50;;
51238;SDS011;38154;47.548;18.828;2022-10-16T03:35:25;7.77;;;2.93;;
51238;SDS011;38154;47.548;18.828;2022-10-16T03:37:51;4.73;;;3.03;;
51238;SDS011;38154;47.548;18.828;2022-10-16T03:40:17;7.60;;;3.63;;
51238;SDS011;38154;47.548;18.828;2022-10-16T03:42:43;6.70;;;2.97;;
51238;SDS011;38154;47.548;18.828;2022-10-16T03:45:09;4.57;;;3.00;;
51238;SDS011;38154;47.548;18.828;2022-10-16T03:47:37;5.68;;;3.15;;
51238;SDS011;38154;47.548;18.828;2022-10-16T03:50:03;6.17;;;3.10;;
51238;SDS011;38154;47.548;18.828;2022-10-16T03:52:30;5.15;;;3.25;;
51238;SDS011;38154;47.548;18.828;2022-10-16T03:54:57;7.30;;;3.03;;
51238;SDS011;38154;47.548;18.828;2022-10-16T03:57:23;6.73;;;3.77;;
51238;SDS011;38154;47.548;18.828;2022-10-16T03:59:49;6.17;;;3.77;;
51238;SDS011;38154;47.548;18.828;2022-10-16T04:02:15;6.07;;;3.17;;
51238;SDS011;38154;47.548;18.828;2022-10-16T04:04:41;6.43;;;3.00;;
51238;SDS011;38154;47.548;18.828;2022-10-16T04:07:06;4.37;;;3.03;;
51238;SDS011;38154;47.548;18.828;2022-10-16T04:09:32;6.17;;;3.30;;
51238;SDS011;38154;47.548;18.828;2022-10-16T04:11:58;6.10;;;3.37;;
51238;SDS011;38154;47.548;18.828;2022-10-16T04:14:24;6.10;;;3.10;;
51238;SDS011;38154;47.548;18.828;2022-10-16T04:16:50;5.17;;;3.07;;
51238;SDS011;38154;47.548;18.828;2022-10-16T04:19:16;5.00;;;3.00;;
51238;SDS011;38154;47.548;18.828;2022-10-16T04:21:41;5.33;;;3.40;;
51238;SDS011;38154;47.548;18.828;2022-10-16T04:24:07;8.47;;;3.47;;
51238;SDS011;38154;47.548;18.828;2022-10-16T04:26:33;4.37;;;3.20;;
51238;SDS011;38154;47.548;18.828;2022-10-16T04:28:59;4.73;;;3.17;;
51238;SDS011;38154;47.548;18.828;2022-10-16T04:31:25;2.63;;;2.43;;
51238;SDS011;38154;47.548;18.828;2022-10-16T04:33:51;5.17;;;2.87;;
51238;SDS011;38154;47.548;18.828;2022-10-16T04:36:16;5.07;;;3.10;;
51238;SDS011;38154;47.548;18.828;2022-10-16T04:38:42;6.20;;;2.60;;
51238;SDS011;38154;47.548;18.828;2022-10-16T04:41:08;4.50;;;3.23;;
51238;SDS011;38154;47.548;18.828;2022-10-16T04:43:34;4.53;;;3.40;;
51238;SDS011;38154;47.548;18.828;2022-10-16T04:46:00;12.32;;;3.37;;
51238;SDS011;38154;47.548;18.828;2022-10-16T04:48:27;7.80;;;2.97;;
51238;SDS011;38154;47.548;18.828;2022-10-16T04:50:53;4.27;;;3.00;;
51238;SDS011;38154;47.548;18.828;2022-10-16T04:53:18;8.80;;;3.30;;
51238;SDS011;38154;47.548;18.828;2022-10-16T04:55:44;4.80;;;2.97;;
51238;SDS011;38154;47.548;18.828;2022-10-16T04:58:11;7.93;;;3.78;;
51238;SDS011;38154;47.548;18.828;2022-10-16T05:00:37;4.57;;;3.00;;
51238;SDS011;38154;47.548;18.828;2022-10-16T05:03:03;8.05;;;3.72;;
51238;SDS011;38154;47.548;18.828;2022-10-16T05:05:33;3.37;;;2.92;;
51238;SDS011;38154;47.548;18.828;2022-10-16T05:07:58;3.60;;;3.12;;
51238;SDS011;38154;47.548;18.828;2022-10-16T05:10:24;5.20;;;3.57;;
51238;SDS011;38154;47.548;18.828;2022-10-16T05:12:50;6.57;;;3.67;;
51238;SDS011;38154;47.548;18.828;2022-10-16T05:15:17;5.30;;;3.42;;
51238;SDS011;38154;47.548;18.828;2022-10-16T05:20:09;6.32;;;3.55;;
51238;SDS011;38154;47.548;18.828;2022-10-16T05:22:35;6.20;;;3.00;;
51238;SDS011;38154;47.548;18.828;2022-10-16T05:25:01;6.20;;;3.23;;
51238;SDS011;38154;47.548;18.828;2022-10-16T05:27:29;5.43;;;3.42;;
51238;SDS011;38154;47.548;18.828;2022-10-16T05:29:55;4.90;;;3.30;;
51238;SDS011;38154;47.548;18.828;2022-10-16T05:32:20;6.27;;;3.27;;
51238;SDS011;38154;47.548;18.828;2022-10-16T05:34:46;5.63;;;3.00;;
51238;SDS011;38154;47.548;18.828;2022-10-16T05:37:12;5.00;;;3.43;;
51238;SDS011;38154;47.548;18.828;2022-10-16T05:39:38;7.97;;;3.47;;
51238;SDS011;38154;47.548;18.828;2022-10-16T05:42:04;4.80;;;3.73;;
51238;SDS011;38154;47.548;18.828;2022-10-16T05:44:31;5.80;;;3.80;;
51238;SDS011;38154;47.548;18.828;2022-10-16T05:46:57;10.60;;;4.43;;
51238;SDS011;38154;47.548;18.828;2022-10-16T05:49:24;5.68;;;3.47;;
51238;SDS011;38154;47.548;18.828;2022-10-16T05:51:50;9.00;;;3.60;;
51238;SDS011;38154;47.548;18.828;2022-10-16T05:54:15;7.63;;;3.60;;
51238;SDS011;38154;47.548;18.828;2022-10-16T05:56:42;8.00;;;3.70;;
51238;SDS011;38154;47.548;18.828;2022-10-16T05:59:08;11.27;;;4.03;;
51238;SDS011;38154;47.548;18.828;2022-10-16T06:01:34;5.63;;;3.77;;
51238;SDS011;38154;47.548;18.828;2022-10-16T06:04:00;4.40;;;3.35;;
51238;SDS011;38154;47.548;18.828;2022-10-16T06:06:27;6.45;;;3.50;;
51238;SDS011;38154;47.548;18.828;2022-10-16T06:08:55;7.78;;;3.67;;
51238;SDS011;38154;47.548;18.828;2022-10-16T06:11:23;4.80;;;3.55;;
51238;SDS011;38154;47.548;18.828;2022-10-16T06:13:51;5.75;;;3.58;;
51238;SDS011;38154;47.548;18.828;2022-10-16T06:16:18;6.47;;;3.83;;
51238;SDS011;38154;47.548;18.828;2022-10-16T06:18:45;9.73;;;4.23;;
51238;SDS011;38154;47.548;18.828;2022-10-16T06:21:14;6.00;;;3.58;;
51238;SDS011;38154;47.548;18.828;2022-10-16T06:23:42;7.87;;;3.75;;
51238;SDS011;38154;47.548;18.828;2022-10-16T06:26:12;6.07;;;3.95;;
51238;SDS011;38154;47.548;18.828;2022-10-16T06:28:40;7.65;;;3.10;;
51238;SDS011;38154;47.548;18.828;2022-10-16T06:31:06;6.83;;;3.23;;
51238;SDS011;38154;47.548;18.828;2022-10-16T06:33:34;5.93;;;3.20;;
51238;SDS011;38154;47.548;18.828;2022-10-16T06:38:36;3.35;;;2.03;;
51238;SDS011;38154;47.548;18.828;2022-10-16T06:41:04;3.25;;;2.42;;
51238;SDS011;38154;47.548;18.828;2022-10-16T06:43:31;4.07;;;2.75;;
51238;SDS011;38154;47.548;18.828;2022-10-16T06:45:58;4.60;;;2.90;;
51238;SDS011;38154;47.548;18.828;2022-10-16T06:48:25;4.25;;;2.55;;
51238;SDS011;38154;47.548;18.828;2022-10-16T06:50:55;5.50;;;3.10;;
51238;SDS011;38154;47.548;18.828;2022-10-16T06:53:23;7.93;;;3.03;;
51238;SDS011;38154;47.548;18.828;2022-10-16T06:55:49;5.15;;;2.60;;
51238;SDS011;38154;47.548;18.828;2022-10-16T06:58:14;4.18;;;2.50;;
51238;SDS011;38154;47.548;18.828;2022-10-16T07:00:40;6.28;;;2.75;;
51238;SDS011;38154;47.548;18.828;2022-10-16T07:03:06;3.60;;;2.80;;
51238;SDS011;38154;47.548;18.828;2022-10-16T07:05:36;5.93;;;2.72;;
51238;SDS011;38154;47.548;18.828;2022-10-16T07:08:05;3.65;;;2.83;;
51238;SDS011;38154;47.548;18.828;2022-10-16T07:10:32;6.62;;;2.87;;
51238;SDS011;38154;47.548;18.828;2022-10-16T07:12:58;5.12;;;2.83;;
51238;SDS011;38154;47.548;18.828;2022-10-16T07:15:24;5.62;;;3.17;;
51238;SDS011;38154;47.548;18.828;2022-10-16T07:17:51;4.95;;;2.85;;
51238;SDS011;38154;47.548;18.828;2022-10-16T07:20:17;6.37;;;3.20;;
51238;SDS011;38154;47.548;18.828;2022-10-16T07:25:12;7.45;;;3.00;;
51238;SDS011;38154;47.548;18.828;2022-10-16T07:27:38;2.58;;;2.35;;
51238;SDS011;38154;47.548;18.828;2022-10-16T07:30:04;5.65;;;3.05;;
51238;SDS011;38154;47.548;18.828;2022-10-16T07:32:31;3.53;;;2.75;;
51238;SDS011;38154;47.548;18.828;2022-10-16T07:34:57;4.32;;;2.85;;
51238;SDS011;38154;47.548;18.828;2022-10-16T07:37:23;4.65;;;2.67;;
51238;SDS011;38154;47.548;18.828;2022-10-16T07:39:49;4.45;;;2.83;;
51238;SDS011;38154;47.548;18.828;2022-10-16T07:42:15;5.30;;;2.95;;
51238;SDS011;38154;47.548;18.828;2022-10-16T07:47:07;3.92;;;2.47;;
51238;SDS011;38154;47.548;18.828;2022-10-16T07:49:33;4.70;;;3.03;;
51238;SDS011;38154;47.548;18.828;2022-10-16T07:51:59;4.40;;;2.37;;
51238;SDS011;38154;47.548;18.828;2022-10-16T07:54:24;3.28;;;2.53;;
51238;SDS011;38154;47.548;18.828;2022-10-16T07:56:50;3.87;;;2.58;;
51238;SDS011;38154;47.548;18.828;2022-10-16T07:59:16;3.92;;;2.30;;
51238;SDS011;38154;47.548;18.828;2022-10-16T08:01:42;4.30;;;2.75;;
51238;SDS011;38154;47.548;18.828;2022-10-16T08:04:08;4.25;;;2.60;;
51238;SDS011;38154;47.548;18.828;2022-10-16T08:06:35;4.47;;;2.25;;
51238;SDS011;38154;47.548;18.828;2022-10-16T08:09:03;3.00;;;2.30;;
51238;SDS011;38154;47.548;18.828;2022-10-16T08:11:30;6.43;;;3.08;;
51238;SDS011;38154;47.548;18.828;2022-10-16T08:16:21;7.45;;;3.50;;
51238;SDS011;38154;47.548;18.828;2022-10-16T08:18:47;5.28;;;2.83;;
51238;SDS011;38154;47.548;18.828;2022-10-16T08:26:07;3.85;;;2.10;;
51238;SDS011;38154;47.548;18.828;2022-10-16T08:28:34;4.18;;;2.67;;
51238;SDS011;38154;47.548;18.828;2022-10-16T08:31:08;5.10;;;2.50;;
51238;SDS011;38154;47.548;18.828;2022-10-16T08:33:35;3.30;;;2.30;;
51238;SDS011;38154;47.548;18.828;2022-10-16T08:36:02;3.33;;;2.37;;
51238;SDS011;38154;47.548;18.828;2022-10-16T08:38:29;3.55;;;2.80;;
51238;SDS011;38154;47.548;18.828;2022-10-16T08:41:02;3.25;;;2.25;;
51238;SDS011;38154;47.548;18.828;2022-10-16T08:49:36;3.97;;;2.80;;
51238;SDS011;38154;47.548;18.828;2022-10-16T08:52:03;4.05;;;2.70;;
51238;SDS011;38154;47.548;18.828;2022-10-16T08:54:29;3.08;;;2.25;;
51238;SDS011;38154;47.548;18.828;2022-10-16T08:57:12;4.10;;;2.25;;
51238;SDS011;38154;47.548;18.828;2022-10-16T08:59:41;4.07;;;2.53;;
51238;SDS011;38154;47.548;18.828;2022-10-16T09:04:48;3.45;;;2.20;;
51238;SDS011;38154;47.548;18.828;2022-10-16T09:07:32;6.43;;;2.72;;
51238;SDS011;38154;47.548;18.828;2022-10-16T09:10:24;4.05;;;2.10;;
51238;SDS011;38154;47.548;18.828;2022-10-16T09:13:09;4.07;;;2.70;;
51238;SDS011;38154;47.548;18.828;2022-10-16T09:15:46;6.20;;;2.55;;
51238;SDS011;38154;47.548;18.828;2022-10-16T09:18:26;3.00;;;2.37;;
51238;SDS011;38154;47.548;18.828;2022-10-16T09:23:42;3.67;;;2.70;;
51238;SDS011;38154;47.548;18.828;2022-10-16T09:26:12;3.97;;;2.92;;
51238;SDS011;38154;47.548;18.828;2022-10-16T09:28:40;4.50;;;2.47;;
51238;SDS011;38154;47.548;18.828;2022-10-16T09:31:24;4.90;;;2.97;;
51238;SDS011;38154;47.548;18.828;2022-10-16T09:33:52;4.53;;;2.90;;
51238;SDS011;38154;47.548;18.828;2022-10-16T09:36:21;4.18;;;2.45;;
51238;SDS011;38154;47.548;18.828;2022-10-16T09:38:49;4.10;;;2.92;;
51238;SDS011;38154;47.548;18.828;2022-10-16T09:41:16;5.87;;;2.92;;
51238;SDS011;38154;47.548;18.828;2022-10-16T09:43:49;4.93;;;3.05;;
51238;SDS011;38154;47.548;18.828;2022-10-16T09:46:21;5.47;;;2.85;;
51238;SDS011;38154;47.548;18.828;2022-10-16T09:48:48;5.47;;;3.15;;
51238;SDS011;38154;47.548;18.828;2022-10-16T09:51:19;5.53;;;2.95;;
51238;SDS011;38154;47.548;18.828;2022-10-16T09:54:02;3.50;;;2.30;;
51238;SDS011;38154;47.548;18.828;2022-10-16T09:56:39;4.35;;;3.08;;
51238;SDS011;38154;47.548;18.828;2022-10-16T09:59:10;3.62;;;2.80;;
51238;SDS011;38154;47.548;18.828;2022-10-16T10:01:44;9.18;;;2.83;;
51238;SDS011;38154;47.548;18.828;2022-10-16T10:04:12;3.72;;;2.72;;
51238;SDS011;38154;47.548;18.828;2022-10-16T10:09:26;5.18;;;2.95;;
51238;SDS011;38154;47.548;18.828;2022-10-16T10:11:58;5.30;;;2.42;;
51238;SDS011;38154;47.548;18.828;2022-10-16T10:14:30;4.55;;;2.78;;
51238;SDS011;38154;47.548;18.828;2022-10-16T10:19:37;4.70;;;2.70;;
51238;SDS011;38154;47.548;18.828;2022-10-16T10:27:28;5.18;;;2.90;;
51238;SDS011;38154;47.548;18.828;2022-10-16T10:36:02;4.93;;;2.53;;
51238;SDS011;38154;47.548;18.828;2022-10-16T10:41:22;3.15;;;2.15;;
51238;SDS011;38154;47.548;18.828;2022-10-16T10:44:00;3.72;;;2.53;;
51238;SDS011;38154;47.548;18.828;2022-10-16T10:46:54;4.78;;;2.78;;
51238;SDS011;38154;47.548;18.828;2022-10-16T11:02:42;2.95;;;1.92;;
51238;SDS011;38154;47.548;18.828;2022-10-16T11:05:22;4.05;;;2.25;;
51238;SDS011;38154;47.548;18.828;2022-10-16T11:07:55;3.70;;;2.28;;
51238;SDS011;38154;47.548;18.828;2022-10-16T11:10:27;2.70;;;2.05;;
51238;SDS011;38154;47.548;18.828;2022-10-16T11:13:45;5.32;;;2.20;;
51238;SDS011;38154;47.548;18.828;2022-10-16T11:16:15;3.53;;;2.42;;
51238;SDS011;38154;47.548;18.828;2022-10-16T11:21:56;2.83;;;2.17;;
51238;SDS011;38154;47.548;18.828;2022-10-16T11:27:08;3.80;;;2.35;;
51238;SDS011;38154;47.548;18.828;2022-10-16T11:29:41;2.92;;;2.20;;
51238;SDS011;38154;47.548;18.828;2022-10-16T11:32:18;3.62;;;2.12;;
51238;SDS011;38154;47.548;18.828;2022-10-16T11:34:52;3.75;;;2.17;;
51238;SDS011;38154;47.548;18.828;2022-10-16T11:37:24;6.70;;;2.17;;
51238;SDS011;38154;47.548;18.828;2022-10-16T11:39:58;3.70;;;2.35;;
51238;SDS011;38154;47.548;18.828;2022-10-16T11:42:41;3.92;;;2.00;;
51238;SDS011;38154;47.548;18.828;2022-10-16T11:45:26;5.82;;;2.78;;
51238;SDS011;38154;47.548;18.828;2022-10-16T11:48:04;4.78;;;2.62;;
51238;SDS011;38154;47.548;18.828;2022-10-16T11:50:49;3.35;;;2.55;;
51238;SDS011;38154;47.548;18.828;2022-10-16T11:53:32;5.32;;;2.70;;
51238;SDS011;38154;47.548;18.828;2022-10-16T11:56:05;3.15;;;2.17;;
51238;SDS011;38154;47.548;18.828;2022-10-16T11:58:32;3.22;;;2.30;;
51238;SDS011;38154;47.548;18.828;2022-10-16T12:01:18;4.57;;;2.37;;
51238;SDS011;38154;47.548;18.828;2022-10-16T12:07:26;4.43;;;2.85;;
51238;SDS011;38154;47.548;18.828;2022-10-16T12:09:34;5.28;;;2.85;;
51238;SDS011;38154;47.548;18.828;2022-10-16T12:12:03;3.67;;;2.65;;
51238;SDS011;38154;47.548;18.828;2022-10-16T12:17:22;4.40;;;2.85;;
51238;SDS011;38154;47.548;18.828;2022-10-16T12:20:00;3.87;;;2.10;;
51238;SDS011;38154;47.548;18.828;2022-10-16T12:22:49;4.22;;;2.00;;
51238;SDS011;38154;47.548;18.828;2022-10-16T12:25:24;3.60;;;2.50;;
51238;SDS011;38154;47.548;18.828;2022-10-16T12:27:54;3.55;;;2.10;;
51238;SDS011;38154;47.548;18.828;2022-10-16T12:30:40;6.78;;;2.22;;
51238;SDS011;38154;47.548;18.828;2022-10-16T12:33:27;3.40;;;2.33;;
51238;SDS011;38154;47.548;18.828;2022-10-16T12:35:55;3.22;;;1.85;;
51238;SDS011;38154;47.548;18.828;2022-10-16T12:38:27;4.37;;;2.75;;
51238;SDS011;38154;47.548;18.828;2022-10-16T12:43:41;3.87;;;2.75;;
51238;SDS011;38154;47.548;18.828;2022-10-16T12:48:35;3.87;;;1.87;;
51238;SDS011;38154;47.548;18.828;2022-10-16T12:51:10;4.10;;;2.33;;
51238;SDS011;38154;47.548;18.828;2022-10-16T12:53:37;2.65;;;1.92;;
51238;SDS011;38154;47.548;18.828;2022-10-16T12:56:04;5.72;;;2.45;;
51238;SDS011;38154;47.548;18.828;2022-10-16T12:58:50;4.35;;;2.70;;
51238;SDS011;38154;47.548;18.828;2022-10-16T13:06:51;6.30;;;2.20;;
51238;SDS011;38154;47.548;18.828;2022-10-16T13:15:22;3.60;;;2.30;;
51238;SDS011;38154;47.548;18.828;2022-10-16T13:23:22;4.62;;;2.62;;
51238;SDS011;38154;47.548;18.828;2022-10-16T13:28:35;2.72;;;1.92;;
51238;SDS011;38154;47.548;18.828;2022-10-16T13:31:04;3.12;;;2.25;;
51238;SDS011;38154;47.548;18.828;2022-10-16T13:36:04;4.32;;;2.55;;
51238;SDS011;38154;47.548;18.828;2022-10-16T13:38:31;8.35;;;3.10;;
51238;SDS011;38154;47.548;18.828;2022-10-16T13:41:00;2.45;;;2.20;;
51238;SDS011;38154;47.548;18.828;2022-10-16T13:43:35;6.15;;;3.03;;
51238;SDS011;38154;47.548;18.828;2022-10-16T13:46:06;4.18;;;2.50;;
51238;SDS011;38154;47.548;18.828;2022-10-16T13:48:37;3.17;;;1.98;;
51238;SDS011;38154;47.548;18.828;2022-10-16T13:51:05;7.00;;;2.28;;
51238;SDS011;38154;47.548;18.828;2022-10-16T13:53:36;3.08;;;2.05;;
51238;SDS011;38154;47.548;18.828;2022-10-16T13:56:03;4.37;;;2.37;;
51238;SDS011;38154;47.548;18.828;2022-10-16T13:58:31;3.33;;;2.37;;
51238;SDS011;38154;47.548;18.828;2022-10-16T14:01:04;6.30;;;2.47;;
51238;SDS011;38154;47.548;18.828;2022-10-16T14:03:40;3.08;;;2.33;;
51238;SDS011;38154;47.548;18.828;2022-10-16T14:06:11;2.35;;;2.08;;
51238;SDS011;38154;47.548;18.828;2022-10-16T14:08:41;6.18;;;2.40;;
51238;SDS011;38154;47.548;18.828;2022-10-16T14:11:09;4.07;;;2.20;;
51238;SDS011;38154;47.548;18.828;2022-10-16T14:13:39;2.12;;;1.92;;
51238;SDS011;38154;47.548;18.828;2022-10-16T14:16:10;4.60;;;2.28;;
51238;SDS011;38154;47.548;18.828;2022-10-16T14:18:44;3.55;;;1.80;;
51238;SDS011;38154;47.548;18.828;2022-10-16T14:21:15;4.93;;;2.08;;
51238;SDS011;38154;47.548;18.828;2022-10-16T14:23:42;4.05;;;2.33;;
51238;SDS011;38154;47.548;18.828;2022-10-16T14:28:35;6.13;;;2.87;;
51238;SDS011;38154;47.548;18.828;2022-10-16T14:31:02;3.85;;;1.87;;
51238;SDS011;38154;47.548;18.828;2022-10-16T14:33:46;3.10;;;2.00;;
51238;SDS011;38154;47.548;18.828;2022-10-16T14:36:13;3.03;;;2.03;;
51238;SDS011;38154;47.548;18.828;2022-10-16T14:38:42;2.20;;;1.83;;
51238;SDS011;38154;47.548;18.828;2022-10-16T14:41:13;3.67;;;2.25;;
51238;SDS011;38154;47.548;18.828;2022-10-16T14:43:41;2.45;;;1.77;;
51238;SDS011;38154;47.548;18.828;2022-10-16T14:46:16;4.00;;;2.30;;
51238;SDS011;38154;47.548;18.828;2022-10-16T14:48:47;2.92;;;2.17;;
51238;SDS011;38154;47.548;18.828;2022-10-16T14:51:16;2.08;;;1.87;;
51238;SDS011;38154;47.548;18.828;2022-10-16T14:53:42;3.92;;;2.03;;
51238;SDS011;38154;47.548;18.828;2022-10-16T14:56:09;2.75;;;2.00;;
51238;SDS011;38154;47.548;18.828;2022-10-16T14:58:43;3.62;;;2.22;;
51238;SDS011;38154;47.548;18.828;2022-10-16T15:01:10;3.28;;;1.58;;
51238;SDS011;38154;47.548;18.828;2022-10-16T15:03:40;2.75;;;2.22;;
51238;SDS011;38154;47.548;18.828;2022-10-16T15:06:12;5.78;;;3.80;;
51238;SDS011;38154;47.548;18.828;2022-10-16T15:08:40;4.57;;;2.60;;
51238;SDS011;38154;47.548;18.828;2022-10-16T15:11:13;7.18;;;3.58;;
51238;SDS011;38154;47.548;18.828;2022-10-16T15:13:40;5.00;;;2.78;;
51238;SDS011;38154;47.548;18.828;2022-10-16T15:16:13;4.82;;;3.83;;
51238;SDS011;38154;47.548;18.828;2022-10-16T15:18:40;5.97;;;3.17;;
51238;SDS011;38154;47.548;18.828;2022-10-16T15:21:07;4.15;;;2.45;;
51238;SDS011;38154;47.548;18.828;2022-10-16T15:23:33;6.37;;;2.17;;
51238;SDS011;38154;47.548;18.828;2022-10-16T15:25:59;4.35;;;2.30;;
51238;SDS011;38154;47.548;18.828;2022-10-16T15:28:25;5.45;;;3.17;;
51238;SDS011;38154;47.548;18.828;2022-10-16T15:30:52;9.30;;;3.10;;
51238;SDS011;38154;47.548;18.828;2022-10-16T15:33:21;4.80;;;2.70;;
51238;SDS011;38154;47.548;18.828;2022-10-16T15:35:49;4.57;;;2.60;;
51238;SDS011;38154;47.548;18.828;2022-10-16T15:38:16;4.70;;;2.10;;
51238;SDS011;38154;47.548;18.828;2022-10-16T15:40:44;2.92;;;2.10;;
51238;SDS011;38154;47.548;18.828;2022-10-16T15:45:36;3.10;;;2.08;;
51238;SDS011;38154;47.548;18.828;2022-10-16T15:48:02;4.82;;;2.42;;
51238;SDS011;38154;47.548;18.828;2022-10-16T15:50:29;2.80;;;2.22;;
51238;SDS011;38154;47.548;18.828;2022-10-16T15:52:56;3.67;;;1.92;;
51238;SDS011;38154;47.548;18.828;2022-10-16T15:55:22;4.10;;;2.03;;
51238;SDS011;38154;47.548;18.828;2022-10-16T15:57:48;6.00;;;2.33;;
51238;SDS011;38154;47.548;18.828;2022-10-16T16:00:18;2.90;;;1.93;;
51238;SDS011;38154;47.548;18.828;2022-10-16T16:02:52;4.12;;;2.53;;
51238;SDS011;38154;47.548;18.828;2022-10-16T16:05:19;5.25;;;1.83;;
51238;SDS011;38154;47.548;18.828;2022-10-16T16:07:47;2.05;;;1.83;;
51238;SDS011;38154;47.548;18.828;2022-10-16T16:12:39;3.08;;;2.00;;
51238;SDS011;38154;47.548;18.828;2022-10-16T16:15:05;3.73;;;2.30;;
51238;SDS011;38154;47.548;18.828;2022-10-16T16:17:32;3.65;;;3.03;;
51238;SDS011;38154;47.548;18.828;2022-10-16T16:19:59;5.75;;;2.45;;
51238;SDS011;38154;47.548;18.828;2022-10-16T16:22:25;2.78;;;1.85;;
51238;SDS011;38154;47.548;18.828;2022-10-16T16:24:51;12.32;;;3.42;;
51238;SDS011;38154;47.548;18.828;2022-10-16T16:27:17;3.90;;;2.50;;
51238;SDS011;38154;47.548;18.828;2022-10-16T16:29:45;3.12;;;2.20;;
51238;SDS011;38154;47.548;18.828;2022-10-16T16:32:11;4.95;;;2.45;;
51238;SDS011;38154;47.548;18.828;2022-10-16T16:34:37;4.53;;;2.80;;
51238;SDS011;38154;47.548;18.828;2022-10-16T16:37:03;5.57;;;2.80;;
51238;SDS011;38154;47.548;18.828;2022-10-16T16:39:29;2.90;;;1.92;;
51238;SDS011;38154;47.548;18.828;2022-10-16T16:41:56;3.43;;;2.60;;
51238;SDS011;38154;47.548;18.828;2022-10-16T16:44:24;2.33;;;2.10;;
51238;SDS011;38154;47.548;18.828;2022-10-16T16:46:50;3.60;;;2.15;;
51238;SDS011;38154;47.548;18.828;2022-10-16T16:49:16;3.15;;;2.12;;